sensor_id;sensor_type;location;lat;lon;timestamp;pressure;altitude;pressure_sealevel;temperature;humidity
60897;BME280;46749;32.932;-117.130;2023-04-08T00:00:14;101325.09;;;15.44;59.41
60897;BME280;46749;32.932;-117.130;2023-04-08T00:02:41;101323.41;;;15.46;59.31
60897;BME280;46749;32.932;-117.130;2023-04-08T00:05:08;101324.25;;;15.45;59.60
60897;BME280;46749;32.932;-117.130;2023-04-08T00:07:34;101321.63;;;15.45;59.34
60897;BME280;46749;32.932;-117.130;2023-04-08T00:10:00;101328.63;;;15.46;59.55
60897;BME280;46749;32.932;-117.130;2023-04-08T00:12:27;101321.63;;;15.45;59.32
60897;BME280;46749;32.932;-117.130;2023-04-08T00:14:53;101321.63;;;15.45;59.63
60897;BME280;46749;32.932;-117.130;2023-04-08T00:17:19;101326.94;;;15.46;59.35
60897;BME280;46749;32.932;-117.130;2023-04-08T00:19:45;101333.06;;;15.47;59.54
60897;BME280;46749;32.932;-117.130;2023-04-08T00:22:13;101335.66;;;15.47;59.53
60897;BME280;46749;32.932;-117.130;2023-04-08T00:24:39;101337.41;;;15.46;59.59
60897;BME280;46749;32.932;-117.130;2023-04-08T00:27:05;101338.28;;;15.47;59.41
60897;BME280;46749;32.932;-117.130;2023-04-08T00:29:32;101340.03;;;15.46;59.32
60897;BME280;46749;32.932;-117.130;2023-04-08T00:31:58;101335.66;;;15.47;59.54
60897;BME280;46749;32.932;-117.130;2023-04-08T00:34:24;101341.78;;;15.47;59.24
60897;BME280;46749;32.932;-117.130;2023-04-08T00:36:50;101342.66;;;15.48;59.34
60897;BME280;46749;32.932;-117.130;2023-04-08T00:39:16;101330.47;;;15.48;59.46
60897;BME280;46749;32.932;-117.130;2023-04-08T00:41:43;101329.63;;;15.49;59.09
60897;BME280;46749;32.932;-117.130;2023-04-08T00:44:09;101327.84;;;15.48;59.35
60897;BME280;46749;32.932;-117.130;2023-04-08T00:46:38;101326.97;;;15.48;59.40
60897;BME280;46749;32.932;-117.130;2023-04-08T00:49:05;101340.94;;;15.48;59.08
60897;BME280;46749;32.932;-117.130;2023-04-08T00:51:34;101341.81;;;15.49;59.21
60897;BME280;46749;32.932;-117.130;2023-04-08T00:54:04;101345.31;;;15.49;59.07
60897;BME280;46749;32.932;-117.130;2023-04-08T00:56:31;101349.69;;;15.49;59.08
60897;BME280;46749;32.932;-117.130;2023-04-08T00:58:59;101360.16;;;15.49;59.03
60897;BME280;46749;32.932;-117.130;2023-04-08T01:09:38;101372.38;;;15.50;59.01
60897;BME280;46749;32.932;-117.130;2023-04-08T01:12:09;101370.66;;;15.50;58.96
60897;BME280;46749;32.932;-117.130;2023-04-08T01:14:40;101370.66;;;15.50;59.09
60897;BME280;46749;32.932;-117.130;2023-04-08T01:17:08;101375.00;;;15.50;59.11
60897;BME280;46749;32.932;-117.130;2023-04-08T01:19:38;101377.63;;;15.50;59.05
60897;BME280;46749;32.932;-117.130;2023-04-08T01:22:33;101373.28;;;15.50;58.93
60897;BME280;46749;32.932;-117.130;2023-04-08T01:25:05;101384.63;;;15.51;58.90
60897;BME280;46749;32.932;-117.130;2023-04-08T01:27:33;101370.66;;;15.50;58.88
60897;BME280;46749;32.932;-117.130;2023-04-08T01:30:01;101367.16;;;15.50;59.16
60897;BME280;46749;32.932;-117.130;2023-04-08T01:32:28;101364.53;;;15.50;58.84
60897;BME280;46749;32.932;-117.130;2023-04-08T01:34:56;101361.91;;;15.50;58.87
60897;BME280;46749;32.932;-117.130;2023-04-08T01:37:24;101364.56;;;15.51;59.01
60897;BME280;46749;32.932;-117.130;2023-04-08T01:39:51;101363.69;;;15.51;58.74
60897;BME280;46749;32.932;-117.130;2023-04-08T01:42:19;101366.28;;;15.51;58.99
60897;BME280;46749;32.932;-117.130;2023-04-08T01:44:47;101370.66;;;15.50;58.88
60897;BME280;46749;32.932;-117.130;2023-04-08T01:47:14;101374.16;;;15.51;58.78
60897;BME280;46749;32.932;-117.130;2023-04-08T01:49:41;101369.78;;;15.50;58.88
60897;BME280;46749;32.932;-117.130;2023-04-08T01:52:09;101382.84;;;15.50;58.83
60897;BME280;46749;32.932;-117.130;2023-04-08T01:54:35;101379.38;;;15.51;58.85
60897;BME280;46749;32.932;-117.130;2023-04-08T01:57:04;101389.88;;;15.51;58.81
60897;BME280;46749;32.932;-117.130;2023-04-08T01:59:34;101394.25;;;15.52;58.82
60897;BME280;46749;32.932;-117.130;2023-04-08T02:02:05;101395.09;;;15.51;58.74
60897;BME280;46749;32.932;-117.130;2023-04-08T02:04:34;101395.09;;;15.51;58.68
60897;BME280;46749;32.932;-117.130;2023-04-08T02:07:01;101390.72;;;15.50;58.76
60897;BME280;46749;32.932;-117.130;2023-04-08T02:09:27;101394.22;;;15.50;58.97
60897;BME280;46749;32.932;-117.130;2023-04-08T02:11:54;101388.09;;;15.50;58.74
60897;BME280;46749;32.932;-117.130;2023-04-08T02:14:22;101390.72;;;15.50;58.71
60897;BME280;46749;32.932;-117.130;2023-04-08T02:16:52;101398.56;;;15.50;58.74
60897;BME280;46749;32.932;-117.130;2023-04-08T02:19:30;101392.44;;;15.49;58.85
60897;BME280;46749;32.932;-117.130;2023-04-08T02:22:03;101400.34;;;15.51;58.85
60897;BME280;46749;32.932;-117.130;2023-04-08T02:24:32;101399.44;;;15.50;58.82
60897;BME280;46749;32.932;-117.130;2023-04-08T02:26:59;101391.63;;;15.52;58.61
60897;BME280;46749;32.932;-117.130;2023-04-08T02:29:31;101384.63;;;15.51;58.83
60897;BME280;46749;32.932;-117.130;2023-04-08T02:32:01;101379.38;;;15.51;58.61
60897;BME280;46749;32.932;-117.130;2023-04-08T02:34:29;101376.75;;;15.49;58.67
60897;BME280;46749;32.932;-117.130;2023-04-08T02:36:56;101379.34;;;15.49;58.59
60897;BME280;46749;32.932;-117.130;2023-04-08T02:39:30;101395.94;;;15.50;58.29
60897;BME280;46749;32.932;-117.130;2023-04-08T02:41:56;101395.94;;;15.50;58.56
60897;BME280;46749;32.932;-117.130;2023-04-08T02:44:23;101397.69;;;15.49;58.61
60897;BME280;46749;32.932;-117.130;2023-04-08T02:46:49;101398.56;;;15.50;58.72
60897;BME280;46749;32.932;-117.130;2023-04-08T02:49:15;101402.91;;;15.49;58.82
60897;BME280;46749;32.932;-117.130;2023-04-08T02:51:42;101399.44;;;15.50;58.71
60897;BME280;46749;32.932;-117.130;2023-04-08T02:54:08;101400.31;;;15.49;58.48
60897;BME280;46749;32.932;-117.130;2023-04-08T02:56:34;101402.03;;;15.49;58.56
60897;BME280;46749;32.932;-117.130;2023-04-08T02:59:00;101407.28;;;15.49;58.44
60897;BME280;46749;32.932;-117.130;2023-04-08T03:01:26;101403.75;;;15.48;58.51
60897;BME280;46749;32.932;-117.130;2023-04-08T03:03:52;101398.56;;;15.50;58.46
60897;BME280;46749;32.932;-117.130;2023-04-08T03:06:19;101402.91;;;15.49;58.61
60897;BME280;46749;32.932;-117.130;2023-04-08T03:08:45;101410.75;;;15.48;58.71
60897;BME280;46749;32.932;-117.130;2023-04-08T03:11:11;101416.84;;;15.48;58.39
60897;BME280;46749;32.932;-117.130;2023-04-08T03:13:37;101410.75;;;15.48;58.64
60897;BME280;46749;32.932;-117.130;2023-04-08T03:16:04;101408.13;;;15.48;58.60
60897;BME280;46749;32.932;-117.130;2023-04-08T03:18:30;101409.84;;;15.47;58.54
60897;BME280;46749;32.932;-117.130;2023-04-08T03:20:56;101414.19;;;15.47;58.77
60897;BME280;46749;32.932;-117.130;2023-04-08T03:23:22;101415.09;;;15.47;58.60
60897;BME280;46749;32.932;-117.130;2023-04-08T03:25:49;101418.59;;;15.48;58.50
60897;BME280;46749;32.932;-117.130;2023-04-08T03:28:15;101432.56;;;15.48;58.71
60897;BME280;46749;32.932;-117.130;2023-04-08T03:30:41;101432.53;;;15.47;58.47
60897;BME280;46749;32.932;-117.130;2023-04-08T03:33:07;101433.41;;;15.47;58.75
60897;BME280;46749;32.932;-117.130;2023-04-08T03:35:33;101435.16;;;15.47;58.47
60897;BME280;46749;32.932;-117.130;2023-04-08T03:38:00;101443.00;;;15.47;58.38
60897;BME280;46749;32.932;-117.130;2023-04-08T03:40:26;101440.38;;;15.47;58.69
60897;BME280;46749;32.932;-117.130;2023-04-08T03:42:52;101453.47;;;15.47;58.47
60897;BME280;46749;32.932;-117.130;2023-04-08T03:45:18;101455.19;;;15.46;58.66
60897;BME280;46749;32.932;-117.130;2023-04-08T03:47:45;101452.53;;;15.45;58.49
60897;BME280;46749;32.932;-117.130;2023-04-08T03:50:11;101455.13;;;15.45;58.60
60897;BME280;46749;32.932;-117.130;2023-04-08T03:52:37;101463.88;;;15.45;58.45
60897;BME280;46749;32.932;-117.130;2023-04-08T03:55:03;101475.22;;;15.46;58.44
60897;BME280;46749;32.932;-117.130;2023-04-08T03:57:30;101469.97;;;15.44;58.32
60897;BME280;46749;32.932;-117.130;2023-04-08T03:59:56;101479.56;;;15.45;58.41
60897;BME280;46749;32.932;-117.130;2023-04-08T04:02:22;101482.16;;;15.44;58.45
60897;BME280;46749;32.932;-117.130;2023-04-08T04:04:48;101484.78;;;15.44;58.32
60897;BME280;46749;32.932;-117.130;2023-04-08T04:07:15;101497.88;;;15.44;58.36
60897;BME280;46749;32.932;-117.130;2023-04-08T04:09:41;101511.84;;;15.44;58.59
60897;BME280;46749;32.932;-117.130;2023-04-08T04:12:07;101502.22;;;15.43;58.45
60897;BME280;46749;32.932;-117.130;2023-04-08T04:14:33;101524.03;;;15.44;58.31
60897;BME280;46749;32.932;-117.130;2023-04-08T04:16:59;101513.56;;;15.44;58.37
60897;BME280;46749;32.932;-117.130;2023-04-08T04:19:29;101517.03;;;15.43;58.45
60897;BME280;46749;32.932;-117.130;2023-04-08T04:21:56;101522.28;;;15.43;58.37
60897;BME280;46749;32.932;-117.130;2023-04-08T04:24:22;101524.91;;;15.43;58.54
60897;BME280;46749;32.932;-117.130;2023-04-08T04:26:48;101523.13;;;15.42;58.26
60897;BME280;46749;32.932;-117.130;2023-04-08T04:29:14;101535.38;;;15.43;58.37
60897;BME280;46749;32.932;-117.130;2023-04-08T04:31:40;101530.97;;;15.42;58.42
60897;BME280;46749;32.932;-117.130;2023-04-08T04:34:07;101531.88;;;15.42;58.57
60897;BME280;46749;32.932;-117.130;2023-04-08T04:36:33;101529.22;;;15.41;58.45
60897;BME280;46749;32.932;-117.130;2023-04-08T04:38:59;101529.22;;;15.41;58.45
60897;BME280;46749;32.932;-117.130;2023-04-08T04:41:25;101535.31;;;15.41;58.53
60897;BME280;46749;32.932;-117.130;2023-04-08T04:43:52;101534.44;;;15.41;58.58
60897;BME280;46749;32.932;-117.130;2023-04-08T04:46:18;101538.78;;;15.40;58.52
60897;BME280;46749;32.932;-117.130;2023-04-08T04:48:44;101544.03;;;15.40;58.40
60897;BME280;46749;32.932;-117.130;2023-04-08T04:51:10;101537.06;;;15.41;58.50
60897;BME280;46749;32.932;-117.130;2023-04-08T04:53:36;101539.69;;;15.41;58.47
60897;BME280;46749;32.932;-117.130;2023-04-08T04:56:02;101533.56;;;15.40;58.38
60897;BME280;46749;32.932;-117.130;2023-04-08T04:58:29;101532.63;;;15.39;58.39
60897;BME280;46749;32.932;-117.130;2023-04-08T05:00:55;101526.53;;;15.39;58.33
60897;BME280;46749;32.932;-117.130;2023-04-08T05:03:22;101516.91;;;15.38;58.29
60897;BME280;46749;32.932;-117.130;2023-04-08T05:05:52;101523.03;;;15.38;58.52
60897;BME280;46749;32.932;-117.130;2023-04-08T05:08:19;101523.88;;;15.37;58.32
60897;BME280;46749;32.932;-117.130;2023-04-08T05:10:45;101526.47;;;15.37;58.41
60897;BME280;46749;32.932;-117.130;2023-04-08T05:13:12;101522.09;;;15.36;58.51
60897;BME280;46749;32.932;-117.130;2023-04-08T05:15:58;101530.84;;;15.37;58.24
60897;BME280;46749;32.932;-117.130;2023-04-08T05:18:24;101530.84;;;15.37;58.31
60897;BME280;46749;32.932;-117.130;2023-04-08T05:20:50;101536.91;;;15.36;58.39
60897;BME280;46749;32.932;-117.130;2023-04-08T05:23:17;101546.50;;;15.35;58.34
60897;BME280;46749;32.932;-117.130;2023-04-08T05:25:43;101532.53;;;15.35;58.32
60897;BME280;46749;32.932;-117.130;2023-04-08T05:28:09;101536.03;;;15.35;58.50
60897;BME280;46749;32.932;-117.130;2023-04-08T05:30:35;101529.03;;;15.34;58.34
60897;BME280;46749;32.932;-117.130;2023-04-08T05:33:01;101524.59;;;15.33;58.41
60897;BME280;46749;32.932;-117.130;2023-04-08T05:35:28;101523.78;;;15.34;58.15
60897;BME280;46749;32.932;-117.130;2023-04-08T05:37:54;101539.50;;;15.34;58.15
60897;BME280;46749;32.932;-117.130;2023-04-08T05:40:20;101532.47;;;15.33;58.46
60897;BME280;46749;32.932;-117.130;2023-04-08T05:42:46;101542.94;;;15.33;58.45
60897;BME280;46749;32.932;-117.130;2023-04-08T05:45:13;101538.53;;;15.32;58.26
60897;BME280;46749;32.932;-117.130;2023-04-08T05:47:39;101542.94;;;15.33;58.43
60897;BME280;46749;32.932;-117.130;2023-04-08T05:50:06;101525.44;;;15.32;58.23
60897;BME280;46749;32.932;-117.130;2023-04-08T05:52:32;101528.91;;;15.31;58.15
60897;BME280;46749;32.932;-117.130;2023-04-08T05:54:58;101526.31;;;15.31;58.42
60897;BME280;46749;32.932;-117.130;2023-04-08T05:57:24;101528.91;;;15.31;58.26
60897;BME280;46749;32.932;-117.130;2023-04-08T05:59:50;101527.19;;;15.32;58.20
60897;BME280;46749;32.932;-117.130;2023-04-08T06:02:18;101534.16;;;15.31;58.15
60897;BME280;46749;32.932;-117.130;2023-04-08T06:04:44;101535.00;;;15.30;58.18
60897;BME280;46749;32.932;-117.130;2023-04-08T06:07:10;101516.69;;;15.30;58.48
60897;BME280;46749;32.932;-117.130;2023-04-08T06:09:36;101527.16;;;15.30;58.18
60897;BME280;46749;32.932;-117.130;2023-04-08T06:12:02;101525.38;;;15.29;58.31
60897;BME280;46749;32.932;-117.130;2023-04-08T06:14:29;101522.75;;;15.29;58.15
60897;BME280;46749;32.932;-117.130;2023-04-08T06:16:55;101526.22;;;15.28;58.33
60897;BME280;46749;32.932;-117.130;2023-04-08T06:19:21;101524.50;;;15.29;58.44
60897;BME280;46749;32.932;-117.130;2023-04-08T06:21:48;101518.38;;;15.28;58.17
60897;BME280;46749;32.932;-117.130;2023-04-08T06:24:16;101528.84;;;15.28;58.30
60897;BME280;46749;32.932;-117.130;2023-04-08T06:26:42;101529.69;;;15.27;58.44
60897;BME280;46749;32.932;-117.130;2023-04-08T06:29:08;101522.72;;;15.28;58.10
60897;BME280;46749;32.932;-117.130;2023-04-08T06:31:34;101514.81;;;15.26;58.32
60897;BME280;46749;32.932;-117.130;2023-04-08T06:34:00;101530.50;;;15.26;58.18
60897;BME280;46749;32.932;-117.130;2023-04-08T06:36:26;101527.00;;;15.26;58.29
60897;BME280;46749;32.932;-117.130;2023-04-08T06:38:53;101526.13;;;15.25;58.04
60897;BME280;46749;32.932;-117.130;2023-04-08T06:41:19;101533.97;;;15.25;58.18
60897;BME280;46749;32.932;-117.130;2023-04-08T06:43:45;101520.91;;;15.27;58.42
60897;BME280;46749;32.932;-117.130;2023-04-08T06:46:11;101519.13;;;15.24;58.14
60897;BME280;46749;32.932;-117.130;2023-04-08T06:48:38;101526.13;;;15.25;58.27
60897;BME280;46749;32.932;-117.130;2023-04-08T06:51:04;101529.63;;;15.26;58.29
60897;BME280;46749;32.932;-117.130;2023-04-08T06:53:32;101528.72;;;15.25;58.13
60897;BME280;46749;32.932;-117.130;2023-04-08T06:55:59;101526.13;;;15.25;58.25
60897;BME280;46749;32.932;-117.130;2023-04-08T06:58:25;101524.34;;;15.24;58.27
60897;BME280;46749;32.932;-117.130;2023-04-08T07:00:53;101522.63;;;15.25;58.25
60897;BME280;46749;32.932;-117.130;2023-04-08T07:03:21;101532.19;;;15.24;58.10
60897;BME280;46749;32.932;-117.130;2023-04-08T07:05:47;101531.31;;;15.24;58.11
60897;BME280;46749;32.932;-117.130;2023-04-08T07:08:13;101535.66;;;15.23;58.51
60897;BME280;46749;32.932;-117.130;2023-04-08T07:10:40;101540.91;;;15.23;58.15
60897;BME280;46749;32.932;-117.130;2023-04-08T07:13:06;101537.41;;;15.23;58.01
60897;BME280;46749;32.932;-117.130;2023-04-08T07:15:33;101536.50;;;15.22;58.18
60897;BME280;46749;32.932;-117.130;2023-04-08T07:17:59;101540.91;;;15.23;58.02
60897;BME280;46749;32.932;-117.130;2023-04-08T07:20:25;101543.47;;;15.22;57.95
60897;BME280;46749;32.932;-117.130;2023-04-08T07:22:52;101537.34;;;15.21;58.11
60897;BME280;46749;32.932;-117.130;2023-04-08T07:25:18;101539.97;;;15.21;58.29
60897;BME280;46749;32.932;-117.130;2023-04-08T07:27:44;101545.19;;;15.21;58.26
60897;BME280;46749;32.932;-117.130;2023-04-08T07:30:11;101541.66;;;15.21;58.26
60897;BME280;46749;32.932;-117.130;2023-04-08T07:32:37;101541.66;;;15.21;58.13
60897;BME280;46749;32.932;-117.130;2023-04-08T07:35:03;101544.25;;;15.19;58.12
60897;BME280;46749;32.932;-117.130;2023-04-08T07:37:30;101541.63;;;15.19;58.20
60897;BME280;46749;32.932;-117.130;2023-04-08T07:39:56;101539.00;;;15.19;57.94
60897;BME280;46749;32.932;-117.130;2023-04-08T07:42:22;101531.13;;;15.18;58.14
60897;BME280;46749;32.932;-117.130;2023-04-08T07:44:48;101536.34;;;15.18;58.10
60897;BME280;46749;32.932;-117.130;2023-04-08T07:47:15;101537.22;;;15.17;58.11
60897;BME280;46749;32.932;-117.130;2023-04-08T07:49:41;101536.31;;;15.16;58.36
60897;BME280;46749;32.932;-117.130;2023-04-08T07:52:07;101530.19;;;15.16;58.02
60897;BME280;46749;32.932;-117.130;2023-04-08T07:54:33;101537.16;;;15.15;58.35
60897;BME280;46749;32.932;-117.130;2023-04-08T07:56:59;101533.69;;;15.16;58.13
60897;BME280;46749;32.932;-117.130;2023-04-08T07:59:27;101524.09;;;15.15;57.92
60897;BME280;46749;32.932;-117.130;2023-04-08T08:01:53;101531.94;;;15.15;57.88
60897;BME280;46749;32.932;-117.130;2023-04-08T08:04:20;101530.13;;;15.14;58.27
60897;BME280;46749;32.932;-117.130;2023-04-08T08:06:46;101533.59;;;15.13;58.22
60897;BME280;46749;32.932;-117.130;2023-04-08T08:09:12;101537.94;;;15.13;58.10
60897;BME280;46749;32.932;-117.130;2023-04-08T08:11:38;101544.06;;;15.13;58.08
60897;BME280;46749;32.932;-117.130;2023-04-08T08:14:05;101558.88;;;15.13;58.15
60897;BME280;46749;32.932;-117.130;2023-04-08T08:16:32;101555.34;;;15.10;58.30
60897;BME280;46749;32.932;-117.130;2023-04-08T08:18:58;101548.38;;;15.11;58.16
60897;BME280;46749;32.932;-117.130;2023-04-08T08:21:25;101558.84;;;15.11;58.08
60897;BME280;46749;32.932;-117.130;2023-04-08T08:23:52;101559.69;;;15.10;57.99
60897;BME280;46749;32.932;-117.130;2023-04-08T08:26:19;101569.25;;;15.09;58.07
60897;BME280;46749;32.932;-117.130;2023-04-08T08:28:46;101565.75;;;15.09;58.09
60897;BME280;46749;32.932;-117.130;2023-04-08T08:31:12;101558.72;;;15.08;58.10
60897;BME280;46749;32.932;-117.130;2023-04-08T08:33:38;101561.34;;;15.08;57.94
60897;BME280;46749;32.932;-117.130;2023-04-08T08:36:04;101570.03;;;15.07;57.86
60897;BME280;46749;32.932;-117.130;2023-04-08T08:38:31;101567.41;;;15.07;57.89
60897;BME280;46749;32.932;-117.130;2023-04-08T08:40:58;101564.78;;;15.07;57.82
60897;BME280;46749;32.932;-117.130;2023-04-08T08:43:26;101566.53;;;15.06;58.05
60897;BME280;46749;32.932;-117.130;2023-04-08T08:45:53;101566.50;;;15.05;58.10
60897;BME280;46749;32.932;-117.130;2023-04-08T08:48:19;101573.44;;;15.04;58.12
60897;BME280;46749;32.932;-117.130;2023-04-08T08:50:46;101568.22;;;15.04;58.01
60897;BME280;46749;32.932;-117.130;2023-04-08T08:53:12;101572.56;;;15.04;57.78
60897;BME280;46749;32.932;-117.130;2023-04-08T08:55:38;101580.41;;;15.04;58.21
60897;BME280;46749;32.932;-117.130;2023-04-08T08:58:05;101570.78;;;15.03;58.15
60897;BME280;46749;32.932;-117.130;2023-04-08T09:00:39;101573.41;;;15.03;58.21
60897;BME280;46749;32.932;-117.130;2023-04-08T09:03:19;101575.13;;;15.02;57.90
60897;BME280;46749;32.932;-117.130;2023-04-08T09:05:50;101566.38;;;15.02;58.08
60897;BME280;46749;32.932;-117.130;2023-04-08T09:08:35;101558.50;;;15.00;58.08
60897;BME280;46749;32.932;-117.130;2023-04-08T09:11:19;101563.72;;;15.00;58.15
60897;BME280;46749;32.932;-117.130;2023-04-08T09:13:48;101558.50;;;15.00;58.10
60897;BME280;46749;32.932;-117.130;2023-04-08T09:16:16;101564.59;;;15.01;57.91
60897;BME280;46749;32.932;-117.130;2023-04-08T09:18:44;101568.94;;;15.00;58.00
60897;BME280;46749;32.932;-117.130;2023-04-08T09:21:12;101584.59;;;14.99;58.06
60897;BME280;46749;32.932;-117.130;2023-04-08T09:23:50;101584.56;;;14.97;58.13
60897;BME280;46749;32.932;-117.130;2023-04-08T09:26:18;101580.22;;;14.98;58.03
60897;BME280;46749;32.932;-117.130;2023-04-08T09:29:00;101581.06;;;14.97;57.91
60897;BME280;46749;32.932;-117.130;2023-04-08T09:31:29;101575.84;;;14.97;58.09
60897;BME280;46749;32.932;-117.130;2023-04-08T09:33:57;101565.38;;;14.97;58.06
60897;BME280;46749;32.932;-117.130;2023-04-08T09:36:24;101560.94;;;14.96;58.20
60897;BME280;46749;32.932;-117.130;2023-04-08T09:38:53;101553.94;;;14.95;58.08
60897;BME280;46749;32.932;-117.130;2023-04-08T09:41:21;101550.44;;;14.94;57.94
60897;BME280;46749;32.932;-117.130;2023-04-08T09:43:53;101539.09;;;14.94;57.98
60897;BME280;46749;32.932;-117.130;2023-04-08T09:46:32;101536.47;;;14.94;58.05
60897;BME280;46749;32.932;-117.130;2023-04-08T09:49:05;101541.72;;;14.94;58.03
60897;BME280;46749;32.932;-117.130;2023-04-08T09:51:52;101537.31;;;14.93;57.84
60897;BME280;46749;32.932;-117.130;2023-04-08T09:54:25;101539.94;;;14.93;58.02
60897;BME280;46749;32.932;-117.130;2023-04-08T09:57:12;101539.06;;;14.92;57.82
60897;BME280;46749;32.932;-117.130;2023-04-08T09:59:47;101543.41;;;14.92;57.98
60897;BME280;46749;32.932;-117.130;2023-04-08T10:02:27;101543.41;;;14.92;57.85
60897;BME280;46749;32.932;-117.130;2023-04-08T10:04:58;101534.66;;;14.91;57.72
60897;BME280;46749;32.932;-117.130;2023-04-08T10:07:25;101535.56;;;14.92;57.97
60897;BME280;46749;32.932;-117.130;2023-04-08T10:09:51;101538.16;;;14.92;57.90
60897;BME280;46749;32.932;-117.130;2023-04-08T10:12:18;101535.56;;;14.92;57.94
60897;BME280;46749;32.932;-117.130;2023-04-08T10:15:23;101532.94;;;14.92;58.43
60897;BME280;46749;32.932;-117.130;2023-04-08T10:17:51;101534.72;;;14.93;57.93
60897;BME280;46749;32.932;-117.130;2023-04-08T10:23:05;101539.06;;;14.92;57.91
60897;BME280;46749;32.932;-117.130;2023-04-08T10:25:33;101541.63;;;14.91;58.17
60897;BME280;46749;32.932;-117.130;2023-04-08T10:33:31;101538.06;;;14.89;57.91
60897;BME280;46749;32.932;-117.130;2023-04-08T10:38:41;101538.94;;;14.89;58.09
60897;BME280;46749;32.932;-117.130;2023-04-08T10:41:09;101545.91;;;14.89;57.93
60897;BME280;46749;32.932;-117.130;2023-04-08T10:43:38;101546.75;;;14.88;57.93
60897;BME280;46749;32.932;-117.130;2023-04-08T10:46:05;101544.97;;;14.87;58.12
60897;BME280;46749;32.932;-117.130;2023-04-08T10:48:31;101541.53;;;14.88;58.29
60897;BME280;46749;32.932;-117.130;2023-04-08T10:50:59;101553.72;;;14.87;57.99
60897;BME280;46749;32.932;-117.130;2023-04-08T10:53:36;101566.78;;;14.87;57.86
60897;BME280;46749;32.932;-117.130;2023-04-08T10:56:11;101558.06;;;14.87;57.85
60897;BME280;46749;32.932;-117.130;2023-04-08T10:58:53;101561.56;;;14.87;58.15
60897;BME280;46749;32.932;-117.130;2023-04-08T11:01:24;101559.81;;;14.88;58.08
60897;BME280;46749;32.932;-117.130;2023-04-08T11:03:50;101555.44;;;14.87;57.75
60897;BME280;46749;32.932;-117.130;2023-04-08T11:06:17;101561.56;;;14.87;58.04
60897;BME280;46749;32.932;-117.130;2023-04-08T11:08:44;101562.41;;;14.86;58.05
60897;BME280;46749;32.932;-117.130;2023-04-08T11:11:11;101565.91;;;14.87;57.85
60897;BME280;46749;32.932;-117.130;2023-04-08T11:13:44;101564.13;;;14.86;57.96
60897;BME280;46749;32.932;-117.130;2023-04-08T11:16:10;101553.66;;;14.86;58.07
60897;BME280;46749;32.932;-117.130;2023-04-08T11:18:37;101548.44;;;14.86;58.06
60897;BME280;46749;32.932;-117.130;2023-04-08T11:21:13;101530.97;;;14.84;58.09
60897;BME280;46749;32.932;-117.130;2023-04-08T11:23:41;101524.84;;;14.84;57.91
60897;BME280;46749;32.932;-117.130;2023-04-08T11:26:08;101508.28;;;14.83;58.50
60897;BME280;46749;32.932;-117.130;2023-04-08T11:28:35;101499.53;;;14.83;57.94
60897;BME280;46749;32.932;-117.130;2023-04-08T11:31:02;101495.22;;;14.83;57.89
60897;BME280;46749;32.932;-117.130;2023-04-08T11:33:33;101491.66;;;14.83;58.12
60897;BME280;46749;32.932;-117.130;2023-04-08T11:36:01;101490.78;;;14.82;58.11
60897;BME280;46749;32.932;-117.130;2023-04-08T11:38:30;101496.91;;;14.83;58.09
60897;BME280;46749;32.932;-117.130;2023-04-08T11:40:58;101494.25;;;14.81;58.17
60897;BME280;46749;32.932;-117.130;2023-04-08T11:43:25;101506.47;;;14.82;58.33
60897;BME280;46749;32.932;-117.130;2023-04-08T11:45:52;101509.09;;;14.82;58.12
60897;BME280;46749;32.932;-117.130;2023-04-08T11:48:18;101512.59;;;14.83;57.94
60897;BME280;46749;32.932;-117.130;2023-04-08T11:50:44;101518.66;;;14.82;58.22
60897;BME280;46749;32.932;-117.130;2023-04-08T11:53:21;101515.16;;;14.81;57.85
60897;BME280;46749;32.932;-117.130;2023-04-08T11:55:50;101504.72;;;14.81;57.96
60897;BME280;46749;32.932;-117.130;2023-04-08T11:58:16;101502.94;;;14.80;58.10
60897;BME280;46749;32.932;-117.130;2023-04-08T12:00:43;101513.41;;;14.80;57.79
60897;BME280;46749;32.932;-117.130;2023-04-08T12:03:10;101518.59;;;14.79;57.94
60897;BME280;46749;32.932;-117.130;2023-04-08T12:05:38;101534.28;;;14.79;57.73
60897;BME280;46749;32.932;-117.130;2023-04-08T12:08:04;101533.41;;;14.78;57.99
60897;BME280;46749;32.932;-117.130;2023-04-08T12:10:30;101531.63;;;14.77;57.92
60897;BME280;46749;32.932;-117.130;2023-04-08T12:12:56;101547.31;;;14.77;57.78
60897;BME280;46749;32.932;-117.130;2023-04-08T12:15:23;101555.09;;;14.76;57.93
60897;BME280;46749;32.932;-117.130;2023-04-08T12:17:49;101558.59;;;14.76;57.96
60897;BME280;46749;32.932;-117.130;2023-04-08T12:20:15;101559.44;;;14.75;57.83
60897;BME280;46749;32.932;-117.130;2023-04-08T12:22:41;101563.78;;;14.75;57.79
60897;BME280;46749;32.932;-117.130;2023-04-08T12:25:08;101549.81;;;14.74;57.91
60897;BME280;46749;32.932;-117.130;2023-04-08T12:27:34;101535.84;;;14.74;58.35
60897;BME280;46749;32.932;-117.130;2023-04-08T12:30:01;101539.34;;;14.74;57.88
60897;BME280;46749;32.932;-117.130;2023-04-08T12:32:28;101522.78;;;14.74;58.07
60897;BME280;46749;32.932;-117.130;2023-04-08T12:34:54;101513.16;;;14.73;57.99
60897;BME280;46749;32.932;-117.130;2023-04-08T12:37:20;101500.09;;;14.73;58.00
60897;BME280;46749;32.932;-117.130;2023-04-08T12:39:47;101497.47;;;14.73;57.89
60897;BME280;46749;32.932;-117.130;2023-04-08T12:42:13;101500.06;;;14.71;57.92